sensor_id;sensor_type;location;lat;lon;timestamp;temperature;humidity
39621;DHT22;25309;48.686;9.170;2023-07-29T00:01:57;17.50;99.90
39621;DHT22;25309;48.686;9.170;2023-07-29T00:04:24;17.50;99.90
39621;DHT22;25309;48.686;9.170;2023-07-29T00:06:51;17.50;99.90
39621;DHT22;25309;48.686;9.170;2023-07-29T00:09:18;17.50;99.90
39621;DHT22;25309;48.686;9.170;2023-07-29T00:11:46;17.50;99.90
39621;DHT22;25309;48.686;9.170;2023-07-29T00:14:13;17.50;99.90
39621;DHT22;25309;48.686;9.170;2023-07-29T00:16:40;17.60;99.90
39621;DHT22;25309;48.686;9.170;2023-07-29T00:19:07;17.60;99.90
39621;DHT22;25309;48.686;9.170;2023-07-29T00:21:35;17.60;99.90
39621;DHT22;25309;48.686;9.170;2023-07-29T00:24:02;17.60;99.90
39621;DHT22;25309;48.686;9.170;2023-07-29T00:26:29;17.60;99.90
39621;DHT22;25309;48.686;9.170;2023-07-29T00:28:57;17.60;99.90
39621;DHT22;25309;48.686;9.170;2023-07-29T00:31:24;17.60;99.90
39621;DHT22;25309;48.686;9.170;2023-07-29T00:33:51;17.60;99.90
39621;DHT22;25309;48.686;9.170;2023-07-29T00:36:19;17.50;99.90
39621;DHT22;25309;48.686;9.170;2023-07-29T00:38:47;17.50;99.90
39621;DHT22;25309;48.686;9.170;2023-07-29T00:41:15;17.60;99.90
39621;DHT22;25309;48.686;9.170;2023-07-29T00:43:42;17.60;99.90
39621;DHT22;25309;48.686;9.170;2023-07-29T00:46:10;17.60;99.90
39621;DHT22;25309;48.686;9.170;2023-07-29T00:48:39;17.50;99.90
39621;DHT22;25309;48.686;9.170;2023-07-29T00:51:07;17.50;99.90
39621;DHT22;25309;48.686;9.170;2023-07-29T00:53:34;17.50;99.90
39621;DHT22;25309;48.686;9.170;2023-07-29T00:56:01;17.50;99.90
39621;DHT22;25309;48.686;9.170;2023-07-29T00:58:28;17.50;99.90
39621;DHT22;25309;48.686;9.170;2023-07-29T01:00:55;17.50;99.90
39621;DHT22;25309;48.686;9.170;2023-07-29T01:03:24;17.50;99.90
39621;DHT22;25309;48.686;9.170;2023-07-29T01:06:01;17.50;99.90
39621;DHT22;25309;48.686;9.170;2023-07-29T01:08:36;17.60;99.90
39621;DHT22;25309;48.686;9.170;2023-07-29T01:11:15;17.60;99.90
39621;DHT22;25309;48.686;9.170;2023-07-29T01:13:48;17.60;99.90
39621;DHT22;25309;48.686;9.170;2023-07-29T01:16:21;17.70;99.90
39621;DHT22;25309;48.686;9.170;2023-07-29T01:18:50;17.70;99.90
39621;DHT22;25309;48.686;9.170;2023-07-29T01:21:19;17.70;99.90
39621;DHT22;25309;48.686;9.170;2023-07-29T01:23:52;17.70;99.90
39621;DHT22;25309;48.686;9.170;2023-07-29T01:26:19;17.70;99.90
39621;DHT22;25309;48.686;9.170;2023-07-29T01:28:46;17.70;99.90
39621;DHT22;25309;48.686;9.170;2023-07-29T01:31:16;17.70;99.90
39621;DHT22;25309;48.686;9.170;2023-07-29T01:33:52;17.70;99.90
39621;DHT22;25309;48.686;9.170;2023-07-29T01:36:22;17.70;99.90
39621;DHT22;25309;48.686;9.170;2023-07-29T01:38:55;17.70;99.90
39621;DHT22;25309;48.686;9.170;2023-07-29T01:41:24;17.70;99.90
39621;DHT22;25309;48.686;9.170;2023-07-29T01:43:52;17.70;99.90
39621;DHT22;25309;48.686;9.170;2023-07-29T01:46:20;17.70;99.90
39621;DHT22;25309;48.686;9.170;2023-07-29T01:48:47;17.70;99.90
39621;DHT22;25309;48.686;9.170;2023-07-29T01:51:14;17.70;99.90
39621;DHT22;25309;48.686;9.170;2023-07-29T01:53:41;17.70;99.90
39621;DHT22;25309;48.686;9.170;2023-07-29T01:56:10;17.70;99.90
39621;DHT22;25309;48.686;9.170;2023-07-29T01:58:47;17.70;99.90
39621;DHT22;25309;48.686;9.170;2023-07-29T02:01:14;17.70;99.90
39621;DHT22;25309;48.686;9.170;2023-07-29T02:03:42;17.70;99.90
39621;DHT22;25309;48.686;9.170;2023-07-29T02:06:09;17.70;99.90
39621;DHT22;25309;48.686;9.170;2023-07-29T02:08:36;17.70;99.90
39621;DHT22;25309;48.686;9.170;2023-07-29T02:11:03;17.70;99.90
39621;DHT22;25309;48.686;9.170;2023-07-29T02:13:32;17.70;99.90
39621;DHT22;25309;48.686;9.170;2023-07-29T02:15:59;17.70;99.90
39621;DHT22;25309;48.686;9.170;2023-07-29T02:18:26;17.70;99.90
39621;DHT22;25309;48.686;9.170;2023-07-29T02:20:53;17.70;99.90
39621;DHT22;25309;48.686;9.170;2023-07-29T02:23:20;17.70;99.90
39621;DHT22;25309;48.686;9.170;2023-07-29T02:25:47;17.70;99.90
39621;DHT22;25309;48.686;9.170;2023-07-29T02:28:14;17.70;99.90
39621;DHT22;25309;48.686;9.170;2023-07-29T02:30:42;17.70;99.90
39621;DHT22;25309;48.686;9.170;2023-07-29T02:33:13;17.70;99.90
39621;DHT22;25309;48.686;9.170;2023-07-29T02:35:40;17.70;99.90
39621;DHT22;25309;48.686;9.170;2023-07-29T02:38:07;17.70;99.90
39621;DHT22;25309;48.686;9.170;2023-07-29T02:40:34;17.70;99.90
39621;DHT22;25309;48.686;9.170;2023-07-29T02:43:01;17.70;99.90
39621;DHT22;25309;48.686;9.170;2023-07-29T02:45:28;17.70;99.90
39621;DHT22;25309;48.686;9.170;2023-07-29T02:47:57;17.60;99.90
39621;DHT22;25309;48.686;9.170;2023-07-29T02:50:24;17.60;99.90
39621;DHT22;25309;48.686;9.170;2023-07-29T02:52:51;17.60;99.90
39621;DHT22;25309;48.686;9.170;2023-07-29T02:55:18;17.70;99.90
39621;DHT22;25309;48.686;9.170;2023-07-29T02:57:46;17.70;99.90
39621;DHT22;25309;48.686;9.170;2023-07-29T03:00:13;17.70;99.90
39621;DHT22;25309;48.686;9.170;2023-07-29T03:02:40;17.70;99.90
39621;DHT22;25309;48.686;9.170;2023-07-29T03:05:09;17.70;99.90
39621;DHT22;25309;48.686;9.170;2023-07-29T03:07:36;17.70;99.90
39621;DHT22;25309;48.686;9.170;2023-07-29T03:10:04;17.70;99.90
39621;DHT22;25309;48.686;9.170;2023-07-29T03:16:52;17.70;99.90
39621;DHT22;25309;48.686;9.170;2023-07-29T03:19:19;17.60;99.90
39621;DHT22;25309;48.686;9.170;2023-07-29T03:21:49;17.60;99.90
39621;DHT22;25309;48.686;9.170;2023-07-29T03:24:16;17.60;99.90
39621;DHT22;25309;48.686;9.170;2023-07-29T03:26:43;17.70;99.90
39621;DHT22;25309;48.686;9.170;2023-07-29T03:29:12;17.70;99.90
39621;DHT22;25309;48.686;9.170;2023-07-29T03:31:39;17.70;99.90
39621;DHT22;25309;48.686;9.170;2023-07-29T03:34:06;17.70;99.90
39621;DHT22;25309;48.686;9.170;2023-07-29T03:36:34;17.70;99.90
39621;DHT22;25309;48.686;9.170;2023-07-29T03:39:03;17.70;99.90
39621;DHT22;25309;48.686;9.170;2023-07-29T03:41:31;17.70;99.90
39621;DHT22;25309;48.686;9.170;2023-07-29T03:43:58;17.60;99.90
39621;DHT22;25309;48.686;9.170;2023-07-29T03:46:25;17.60;99.90
39621;DHT22;25309;48.686;9.170;2023-07-29T03:48:52;17.50;99.90
39621;DHT22;25309;48.686;9.170;2023-07-29T03:51:19;17.50;99.90
39621;DHT22;25309;48.686;9.170;2023-07-29T03:53:47;17.40;99.90
39621;DHT22;25309;48.686;9.170;2023-07-29T03:56:15;17.50;99.90
39621;DHT22;25309;48.686;9.170;2023-07-29T03:58:42;17.50;99.90
39621;DHT22;25309;48.686;9.170;2023-07-29T04:01:10;17.50;99.90
39621;DHT22;25309;48.686;9.170;2023-07-29T04:03:37;17.50;99.90
39621;DHT22;25309;48.686;9.170;2023-07-29T04:06:04;17.50;99.90
39621;DHT22;25309;48.686;9.170;2023-07-29T04:08:31;17.40;99.90
39621;DHT22;25309;48.686;9.170;2023-07-29T04:10:59;17.50;99.90
39621;DHT22;25309;48.686;9.170;2023-07-29T04:13:27;17.40;99.90
39621;DHT22;25309;48.686;9.170;2023-07-29T04:15:54;17.40;99.90
39621;DHT22;25309;48.686;9.170;2023-07-29T04:18:21;17.50;99.90
39621;DHT22;25309;48.686;9.170;2023-07-29T04:20:48;17.50;99.90
39621;DHT22;25309;48.686;9.170;2023-07-29T04:23:15;17.50;99.90
39621;DHT22;25309;48.686;9.170;2023-07-29T04:25:42;17.50;99.90
39621;DHT22;25309;48.686;9.170;2023-07-29T04:28:09;17.50;99.90
39621;DHT22;25309;48.686;9.170;2023-07-29T04:30:37;17.60;99.90
39621;DHT22;25309;48.686;9.170;2023-07-29T04:33:04;17.60;99.90
39621;DHT22;25309;48.686;9.170;2023-07-29T04:35:31;17.60;99.90
39621;DHT22;25309;48.686;9.170;2023-07-29T04:37:58;17.60;99.90
39621;DHT22;25309;48.686;9.170;2023-07-29T04:40:25;17.70;99.90
39621;DHT22;25309;48.686;9.170;2023-07-29T04:42:52;17.60;99.90
39621;DHT22;25309;48.686;9.170;2023-07-29T04:45:19;17.60;99.90
39621;DHT22;25309;48.686;9.170;2023-07-29T04:47:48;17.60;99.90
39621;DHT22;25309;48.686;9.170;2023-07-29T04:50:15;17.60;99.90
39621;DHT22;25309;48.686;9.170;2023-07-29T04:52:42;17.60;99.90
39621;DHT22;25309;48.686;9.170;2023-07-29T04:55:09;17.60;99.90
39621;DHT22;25309;48.686;9.170;2023-07-29T04:57:36;17.60;99.90
39621;DHT22;25309;48.686;9.170;2023-07-29T05:00:03;17.60;99.90
39621;DHT22;25309;48.686;9.170;2023-07-29T05:02:30;17.60;99.90
39621;DHT22;25309;48.686;9.170;2023-07-29T05:04:59;17.60;99.90
39621;DHT22;25309;48.686;9.170;2023-07-29T05:07:26;17.60;99.90
39621;DHT22;25309;48.686;9.170;2023-07-29T05:09:53;17.60;99.90
39621;DHT22;25309;48.686;9.170;2023-07-29T05:12:19;17.60;99.90
39621;DHT22;25309;48.686;9.170;2023-07-29T05:14:46;17.60;99.90
39621;DHT22;25309;48.686;9.170;2023-07-29T05:17:13;17.60;99.90
39621;DHT22;25309;48.686;9.170;2023-07-29T05:19:40;17.60;99.90
39621;DHT22;25309;48.686;9.170;2023-07-29T05:22:10;17.60;99.90
39621;DHT22;25309;48.686;9.170;2023-07-29T05:24:37;17.60;99.90
39621;DHT22;25309;48.686;9.170;2023-07-29T05:27:04;17.60;99.90
39621;DHT22;25309;48.686;9.170;2023-07-29T05:29:31;17.50;99.90
39621;DHT22;25309;48.686;9.170;2023-07-29T05:31:58;17.50;99.90
39621;DHT22;25309;48.686;9.170;2023-07-29T05:34:26;17.40;99.90
39621;DHT22;25309;48.686;9.170;2023-07-29T05:36:53;17.40;99.90
39621;DHT22;25309;48.686;9.170;2023-07-29T05:39:21;17.50;99.90
39621;DHT22;25309;48.686;9.170;2023-07-29T05:41:48;17.50;99.90
39621;DHT22;25309;48.686;9.170;2023-07-29T05:44:15;17.60;99.90
39621;DHT22;25309;48.686;9.170;2023-07-29T05:46:43;17.70;99.90
39621;DHT22;25309;48.686;9.170;2023-07-29T05:49:10;17.70;99.90
39621;DHT22;25309;48.686;9.170;2023-07-29T05:51:37;17.80;99.90
39621;DHT22;25309;48.686;9.170;2023-07-29T05:54:04;17.90;99.90
39621;DHT22;25309;48.686;9.170;2023-07-29T05:56:33;17.80;99.90
39621;DHT22;25309;48.686;9.170;2023-07-29T05:59:00;17.80;99.90
39621;DHT22;25309;48.686;9.170;2023-07-29T06:01:27;17.80;99.90
39621;DHT22;25309;48.686;9.170;2023-07-29T06:03:54;17.90;99.90
39621;DHT22;25309;48.686;9.170;2023-07-29T06:06:22;17.90;99.90
39621;DHT22;25309;48.686;9.170;2023-07-29T06:08:50;18.00;99.90
39621;DHT22;25309;48.686;9.170;2023-07-29T06:11:17;18.10;99.90
39621;DHT22;25309;48.686;9.170;2023-07-29T06:13:47;18.20;99.90
39621;DHT22;25309;48.686;9.170;2023-07-29T06:16:14;18.30;99.90
39621;DHT22;25309;48.686;9.170;2023-07-29T06:18:42;18.30;99.90
39621;DHT22;25309;48.686;9.170;2023-07-29T06:21:09;18.50;99.90
39621;DHT22;25309;48.686;9.170;2023-07-29T06:23:39;18.50;99.90
39621;DHT22;25309;48.686;9.170;2023-07-29T06:26:06;18.60;99.90
39621;DHT22;25309;48.686;9.170;2023-07-29T06:28:33;18.70;99.90
39621;DHT22;25309;48.686;9.170;2023-07-29T06:31:02;18.80;99.90
39621;DHT22;25309;48.686;9.170;2023-07-29T06:33:29;18.90;99.90
39621;DHT22;25309;48.686;9.170;2023-07-29T06:35:56;18.90;99.90
39621;DHT22;25309;48.686;9.170;2023-07-29T06:38:23;19.00;99.90
39621;DHT22;25309;48.686;9.170;2023-07-29T06:40:50;19.10;99.90
39621;DHT22;25309;48.686;9.170;2023-07-29T06:43:17;19.10;99.90
39621;DHT22;25309;48.686;9.170;2023-07-29T06:45:44;19.10;99.90
39621;DHT22;25309;48.686;9.170;2023-07-29T06:48:12;19.00;99.90
39621;DHT22;25309;48.686;9.170;2023-07-29T06:50:39;18.90;99.90
39621;DHT22;25309;48.686;9.170;2023-07-29T06:53:06;18.70;99.90
39621;DHT22;25309;48.686;9.170;2023-07-29T06:55:33;18.50;99.90
39621;DHT22;25309;48.686;9.170;2023-07-29T06:58:00;18.40;99.90
39621;DHT22;25309;48.686;9.170;2023-07-29T07:00:27;18.20;99.90
39621;DHT22;25309;48.686;9.170;2023-07-29T07:02:54;18.10;99.90
39621;DHT22;25309;48.686;9.170;2023-07-29T07:05:23;18.00;99.90
39621;DHT22;25309;48.686;9.170;2023-07-29T07:07:49;17.90;99.90
39621;DHT22;25309;48.686;9.170;2023-07-29T07:10:17;17.80;99.90
39621;DHT22;25309;48.686;9.170;2023-07-29T07:12:43;17.70;99.90
39621;DHT22;25309;48.686;9.170;2023-07-29T07:15:10;17.60;99.90
39621;DHT22;25309;48.686;9.170;2023-07-29T07:17:37;17.50;99.90
39621;DHT22;25309;48.686;9.170;2023-07-29T07:20:06;17.40;99.90
39621;DHT22;25309;48.686;9.170;2023-07-29T07:22:34;17.30;99.90
39621;DHT22;25309;48.686;9.170;2023-07-29T07:25:01;17.30;99.90
39621;DHT22;25309;48.686;9.170;2023-07-29T07:27:28;17.30;99.90
39621;DHT22;25309;48.686;9.170;2023-07-29T07:29:55;17.30;99.90
39621;DHT22;25309;48.686;9.170;2023-07-29T07:32:22;17.20;99.90
39621;DHT22;25309;48.686;9.170;2023-07-29T07:34:49;17.20;99.90
39621;DHT22;25309;48.686;9.170;2023-07-29T07:37:16;17.20;99.90
39621;DHT22;25309;48.686;9.170;2023-07-29T07:39:44;17.30;99.90
39621;DHT22;25309;48.686;9.170;2023-07-29T07:42:11;17.30;99.90
39621;DHT22;25309;48.686;9.170;2023-07-29T07:44:38;17.40;99.90
39621;DHT22;25309;48.686;9.170;2023-07-29T07:47:05;17.40;99.90
39621;DHT22;25309;48.686;9.170;2023-07-29T07:49:32;17.50;99.90
39621;DHT22;25309;48.686;9.170;2023-07-29T07:51:59;17.50;99.90
39621;DHT22;25309;48.686;9.170;2023-07-29T07:54:26;17.50;99.90
39621;DHT22;25309;48.686;9.170;2023-07-29T07:56:54;17.60;99.90
39621;DHT22;25309;48.686;9.170;2023-07-29T07:59:21;17.70;99.90
39621;DHT22;25309;48.686;9.170;2023-07-29T08:01:48;17.70;99.90
39621;DHT22;25309;48.686;9.170;2023-07-29T08:04:15;17.90;99.90
39621;DHT22;25309;48.686;9.170;2023-07-29T08:06:42;18.00;99.90
39621;DHT22;25309;48.686;9.170;2023-07-29T08:09:09;18.00;99.90
39621;DHT22;25309;48.686;9.170;2023-07-29T08:11:36;18.10;99.90
39621;DHT22;25309;48.686;9.170;2023-07-29T08:14:04;18.20;99.90
39621;DHT22;25309;48.686;9.170;2023-07-29T08:16:31;18.20;99.90
39621;DHT22;25309;48.686;9.170;2023-07-29T08:18:58;18.40;99.90
39621;DHT22;25309;48.686;9.170;2023-07-29T08:21:26;18.40;99.90
39621;DHT22;25309;48.686;9.170;2023-07-29T08:23:53;18.50;99.90
39621;DHT22;25309;48.686;9.170;2023-07-29T08:26:20;18.60;99.90
39621;DHT22;25309;48.686;9.170;2023-07-29T08:28:48;18.60;99.90
39621;DHT22;25309;48.686;9.170;2023-07-29T08:31:16;18.70;99.90
39621;DHT22;25309;48.686;9.170;2023-07-29T08:33:43;18.80;99.90
39621;DHT22;25309;48.686;9.170;2023-07-29T08:36:10;18.90;99.90
39621;DHT22;25309;48.686;9.170;2023-07-29T08:38:37;19.00;99.90
39621;DHT22;25309;48.686;9.170;2023-07-29T08:41:11;19.10;99.90
39621;DHT22;25309;48.686;9.170;2023-07-29T08:43:44;19.40;99.90
39621;DHT22;25309;48.686;9.170;2023-07-29T08:46:15;19.60;99.90
39621;DHT22;25309;48.686;9.170;2023-07-29T08:48:43;19.90;99.90
39621;DHT22;25309;48.686;9.170;2023-07-29T08:51:11;20.00;99.90
39621;DHT22;25309;48.686;9.170;2023-07-29T08:53:38;20.10;99.90
39621;DHT22;25309;48.686;9.170;2023-07-29T08:56:06;20.30;99.90
39621;DHT22;25309;48.686;9.170;2023-07-29T08:58:35;20.40;99.90
39621;DHT22;25309;48.686;9.170;2023-07-29T09:01:02;20.50;99.90
39621;DHT22;25309;48.686;9.170;2023-07-29T09:03:30;20.60;99.90
39621;DHT22;25309;48.686;9.170;2023-07-29T09:05:58;20.70;99.90
39621;DHT22;25309;48.686;9.170;2023-07-29T09:08:26;20.80;99.90
39621;DHT22;25309;48.686;9.170;2023-07-29T09:10:53;21.00;99.90
39621;DHT22;25309;48.686;9.170;2023-07-29T09:13:21;21.00;99.90
39621;DHT22;25309;48.686;9.170;2023-07-29T09:15:48;21.20;99.90
39621;DHT22;25309;48.686;9.170;2023-07-29T09:18:16;21.40;99.90
39621;DHT22;25309;48.686;9.170;2023-07-29T09:20:46;21.60;99.90
39621;DHT22;25309;48.686;9.170;2023-07-29T09:23:14;21.80;99.90
39621;DHT22;25309;48.686;9.170;2023-07-29T09:25:42;21.90;99.90
39621;DHT22;25309;48.686;9.170;2023-07-29T09:28:10;22.00;99.90
39621;DHT22;25309;48.686;9.170;2023-07-29T09:30:38;22.20;99.90
39621;DHT22;25309;48.686;9.170;2023-07-29T09:33:05;22.30;99.90
39621;DHT22;25309;48.686;9.170;2023-07-29T09:35:33;22.30;99.90
39621;DHT22;25309;48.686;9.170;2023-07-29T09:38:02;22.30;99.90
39621;DHT22;25309;48.686;9.170;2023-07-29T09:40:34;22.40;99.90
39621;DHT22;25309;48.686;9.170;2023-07-29T09:43:02;22.50;99.90
39621;DHT22;25309;48.686;9.170;2023-07-29T09:45:29;22.50;99.90
39621;DHT22;25309;48.686;9.170;2023-07-29T09:47:57;22.50;99.90
39621;DHT22;25309;48.686;9.170;2023-07-29T09:50:26;22.50;99.90
39621;DHT22;25309;48.686;9.170;2023-07-29T09:55:23;23.00;99.90
39621;DHT22;25309;48.686;9.170;2023-07-29T09:57:55;23.10;99.90
39621;DHT22;25309;48.686;9.170;2023-07-29T10:00:23;23.00;99.90
39621;DHT22;25309;48.686;9.170;2023-07-29T10:02:51;22.90;99.90
39621;DHT22;25309;48.686;9.170;2023-07-29T10:05:20;23.00;99.90
39621;DHT22;25309;48.686;9.170;2023-07-29T10:07:47;23.20;99.90
39621;DHT22;25309;48.686;9.170;2023-07-29T10:10:15;23.60;99.90
39621;DHT22;25309;48.686;9.170;2023-07-29T10:12:44;24.30;99.90
39621;DHT22;25309;48.686;9.170;2023-07-29T10:15:12;24.80;99.90
39621;DHT22;25309;48.686;9.170;2023-07-29T10:17:39;25.40;99.90
39621;DHT22;25309;48.686;9.170;2023-07-29T10:20:08;25.80;99.90
39621;DHT22;25309;48.686;9.170;2023-07-29T10:22:39;26.10;99.90
39621;DHT22;25309;48.686;9.170;2023-07-29T10:25:08;27.10;99.90
39621;DHT22;25309;48.686;9.170;2023-07-29T10:27:42;28.10;99.90
39621;DHT22;25309;48.686;9.170;2023-07-29T10:30:12;28.00;99.90
39621;DHT22;25309;48.686;9.170;2023-07-29T10:32:42;28.90;99.90
39621;DHT22;25309;48.686;9.170;2023-07-29T10:35:13;29.70;99.90
39621;DHT22;25309;48.686;9.170;2023-07-29T10:37:40;29.70;99.90
39621;DHT22;25309;48.686;9.170;2023-07-29T10:40:10;29.20;99.90
39621;DHT22;25309;48.686;9.170;2023-07-29T10:42:38;29.40;99.90
39621;DHT22;25309;48.686;9.170;2023-07-29T10:45:20;28.90;99.90
39621;DHT22;25309;48.686;9.170;2023-07-29T10:47:47;28.00;99.90
39621;DHT22;25309;48.686;9.170;2023-07-29T10:50:20;27.80;99.90
39621;DHT22;25309;48.686;9.170;2023-07-29T10:52:51;27.90;99.90
39621;DHT22;25309;48.686;9.170;2023-07-29T10:55:30;28.50;99.90
39621;DHT22;25309;48.686;9.170;2023-07-29T10:58:10;28.90;99.90
39621;DHT22;25309;48.686;9.170;2023-07-29T11:00:41;29.70;99.90
39621;DHT22;25309;48.686;9.170;2023-07-29T11:03:08;29.70;98.70
39621;DHT22;25309;48.686;9.170;2023-07-29T11:05:49;29.40;99.60
39621;DHT22;25309;48.686;9.170;2023-07-29T11:08:28;29.10;99.90
39621;DHT22;25309;48.686;9.170;2023-07-29T11:11:03;28.60;98.90
39621;DHT22;25309;48.686;9.170;2023-07-29T11:13:31;28.30;99.30
39621;DHT22;25309;48.686;9.170;2023-07-29T11:16:00;28.00;99.90
39621;DHT22;25309;48.686;9.170;2023-07-29T11:18:29;27.80;99.90
39621;DHT22;25309;48.686;9.170;2023-07-29T11:20:57;27.50;99.90
39621;DHT22;25309;48.686;9.170;2023-07-29T11:23:30;27.40;99.90
39621;DHT22;25309;48.686;9.170;2023-07-29T11:25:57;27.30;99.90
39621;DHT22;25309;48.686;9.170;2023-07-29T11:28:25;27.00;99.80
39621;DHT22;25309;48.686;9.170;2023-07-29T11:30:53;27.00;99.30
39621;DHT22;25309;48.686;9.170;2023-07-29T11:33:23;27.00;99.90
39621;DHT22;25309;48.686;9.170;2023-07-29T11:35:50;26.90;99.30
39621;DHT22;25309;48.686;9.170;2023-07-29T11:38:20;26.80;98.60
39621;DHT22;25309;48.686;9.170;2023-07-29T11:40:55;26.70;98.50
39621;DHT22;25309;48.686;9.170;2023-07-29T11:43:22;26.80;99.20
39621;DHT22;25309;48.686;9.170;2023-07-29T11:45:50;26.90;97.70
39621;DHT22;25309;48.686;9.170;2023-07-29T11:48:18;26.80;97.90
39621;DHT22;25309;48.686;9.170;2023-07-29T11:50:46;26.90;97.90
39621;DHT22;25309;48.686;9.170;2023-07-29T11:53:14;27.20;97.90
39621;DHT22;25309;48.686;9.170;2023-07-29T11:55:43;27.70;96.40
39621;DHT22;25309;48.686;9.170;2023-07-29T11:58:10;27.70;96.90
39621;DHT22;25309;48.686;9.170;2023-07-29T12:00:38;27.80;96.70
39621;DHT22;25309;48.686;9.170;2023-07-29T12:03:05;28.20;96.30
39621;DHT22;25309;48.686;9.170;2023-07-29T12:05:32;28.20;95.20
39621;DHT22;25309;48.686;9.170;2023-07-29T12:08:01;28.00;95.20
39621;DHT22;25309;48.686;9.170;2023-07-29T12:10:28;27.90;95.90
39621;DHT22;25309;48.686;9.170;2023-07-29T12:12:55;28.20;95.80
39621;DHT22;25309;48.686;9.170;2023-07-29T12:15:26;28.20;94.40
39621;DHT22;25309;48.686;9.170;2023-07-29T12:17:55;27.80;94.50
39621;DHT22;25309;48.686;9.170;2023-07-29T12:20:23;27.70;94.70
39621;DHT22;25309;48.686;9.170;2023-07-29T12:22:56;27.40;93.40
39621;DHT22;25309;48.686;9.170;2023-07-29T12:25:25;27.30;93.10
39621;DHT22;25309;48.686;9.170;2023-07-29T12:27:53;27.10;94.00
39621;DHT22;25309;48.686;9.170;2023-07-29T12:30:20;26.80;94.50
39621;DHT22;25309;48.686;9.170;2023-07-29T12:32:47;26.90;94.50
39621;DHT22;25309;48.686;9.170;2023-07-29T12:35:15;27.20;94.00
39621;DHT22;25309;48.686;9.170;2023-07-29T12:37:42;27.40;93.80
39621;DHT22;25309;48.686;9.170;2023-07-29T12:40:21;27.70;94.30
39621;DHT22;25309;48.686;9.170;2023-07-29T12:42:51;28.10;93.60
39621;DHT22;25309;48.686;9.170;2023-07-29T12:45:18;28.30;93.30
39621;DHT22;25309;48.686;9.170;2023-07-29T12:47:45;28.60;93.30
39621;DHT22;25309;48.686;9.170;2023-07-29T12:50:12;28.90;93.00
39621;DHT22;25309;48.686;9.170;2023-07-29T12:52:39;28.80;92.10
39621;DHT22;25309;48.686;9.170;2023-07-29T12:55:07;28.40;92.90
39621;DHT22;25309;48.686;9.170;2023-07-29T12:57:35;28.30;92.70
39621;DHT22;25309;48.686;9.170;2023-07-29T13:00:05;27.70;93.40
39621;DHT22;25309;48.686;9.170;2023-07-29T13:02:32;27.20;93.90
39621;DHT22;25309;48.686;9.170;2023-07-29T13:04:59;27.20;94.90
39621;DHT22;25309;48.686;9.170;2023-07-29T13:07:26;27.10;93.80
39621;DHT22;25309;48.686;9.170;2023-07-29T13:09:53;26.80;94.10
39621;DHT22;25309;48.686;9.170;2023-07-29T13:12:20;26.90;93.80
39621;DHT22;25309;48.686;9.170;2023-07-29T13:14:47;27.00;93.90
39621;DHT22;25309;48.686;9.170;2023-07-29T13:17:15;26.80;93.50
39621;DHT22;25309;48.686;9.170;2023-07-29T13:19:42;26.90;93.60
39621;DHT22;25309;48.686;9.170;2023-07-29T13:22:09;27.00;93.70
39621;DHT22;25309;48.686;9.170;2023-07-29T13:24:36;27.00;93.20
39621;DHT22;25309;48.686;9.170;2023-07-29T13:27:04;27.00;94.10
39621;DHT22;25309;48.686;9.170;2023-07-29T13:29:31;26.90;93.90
39621;DHT22;25309;48.686;9.170;2023-07-29T13:31:58;27.00;94.20
39621;DHT22;25309;48.686;9.170;2023-07-29T13:34:27;27.10;93.50
39621;DHT22;25309;48.686;9.170;2023-07-29T13:36:53;26.90;93.70
39621;DHT22;25309;48.686;9.170;2023-07-29T13:39:20;26.90;93.00
39621;DHT22;25309;48.686;9.170;2023-07-29T13:41:47;26.80;92.50
39621;DHT22;25309;48.686;9.170;2023-07-29T13:44:14;26.60;92.80
39621;DHT22;25309;48.686;9.170;2023-07-29T13:46:41;26.50;92.90
39621;DHT22;25309;48.686;9.170;2023-07-29T13:49:08;26.30;92.90
39621;DHT22;25309;48.686;9.170;2023-07-29T13:51:36;26.60;93.50
39621;DHT22;25309;48.686;9.170;2023-07-29T13:54:04;26.90;93.80
39621;DHT22;25309;48.686;9.170;2023-07-29T13:56:31;26.90;93.30
39621;DHT22;25309;48.686;9.170;2023-07-29T13:58:58;26.80;93.20
39621;DHT22;25309;48.686;9.170;2023-07-29T14:01:25;26.70;92.90
39621;DHT22;25309;48.686;9.170;2023-07-29T14:03:51;26.50;93.10
39621;DHT22;25309;48.686;9.170;2023-07-29T14:06:18;26.50;93.40
39621;DHT22;25309;48.686;9.170;2023-07-29T14:09:07;26.50;93.50
39621;DHT22;25309;48.686;9.170;2023-07-29T14:11:34;26.60;93.70
39621;DHT22;25309;48.686;9.170;2023-07-29T14:14:02;26.50;93.50
39621;DHT22;25309;48.686;9.170;2023-07-29T14:16:29;26.40;93.10
39621;DHT22;25309;48.686;9.170;2023-07-29T14:18:55;26.30;93.80
39621;DHT22;25309;48.686;9.170;2023-07-29T14:21:22;26.20;93.70
39621;DHT22;25309;48.686;9.170;2023-07-29T14:23:49;26.10;94.00
39621;DHT22;25309;48.686;9.170;2023-07-29T14:26:18;26.20;93.60
39621;DHT22;25309;48.686;9.170;2023-07-29T14:28:45;26.30;93.60
39621;DHT22;25309;48.686;9.170;2023-07-29T14:31:11;26.30;93.50
39621;DHT22;25309;48.686;9.170;2023-07-29T14:33:38;26.20;93.10
39621;DHT22;25309;48.686;9.170;2023-07-29T14:36:05;26.40;93.80
39621;DHT22;25309;48.686;9.170;2023-07-29T14:38:34;26.60;93.20
39621;DHT22;25309;48.686;9.170;2023-07-29T14:41:01;26.30;93.00
39621;DHT22;25309;48.686;9.170;2023-07-29T14:43:30;26.20;93.60
39621;DHT22;25309;48.686;9.170;2023-07-29T14:45:57;26.30;93.90
39621;DHT22;25309;48.686;9.170;2023-07-29T14:48:24;26.10;93.20
39621;DHT22;25309;48.686;9.170;2023-07-29T14:50:51;26.00;93.00
39621;DHT22;25309;48.686;9.170;2023-07-29T14:53:18;26.10;93.30
39621;DHT22;25309;48.686;9.170;2023-07-29T14:55:45;26.00;93.30
39621;DHT22;25309;48.686;9.170;2023-07-29T14:58:12;26.10;93.20
39621;DHT22;25309;48.686;9.170;2023-07-29T15:00:40;25.90;93.10
39621;DHT22;25309;48.686;9.170;2023-07-29T15:03:07;25.70;93.50
39621;DHT22;25309;48.686;9.170;2023-07-29T15:05:35;25.90;93.80
39621;DHT22;25309;48.686;9.170;2023-07-29T15:08:01;25.90;93.30
39621;DHT22;25309;48.686;9.170;2023-07-29T15:10:28;25.80;93.60
39621;DHT22;25309;48.686;9.170;2023-07-29T15:12:55;25.80;93.40
39621;DHT22;25309;48.686;9.170;2023-07-29T15:15:22;25.70;93.90
39621;DHT22;25309;48.686;9.170;2023-07-29T15:17:51;25.70;94.30
39621;DHT22;25309;48.686;9.170;2023-07-29T15:20:18;25.80;94.00
39621;DHT22;25309;48.686;9.170;2023-07-29T15:22:45;25.80;94.30
39621;DHT22;25309;48.686;9.170;2023-07-29T15:25:12;25.80;94.10
39621;DHT22;25309;48.686;9.170;2023-07-29T15:27:39;25.80;94.10
39621;DHT22;25309;48.686;9.170;2023-07-29T15:30:07;25.70;94.10
39621;DHT22;25309;48.686;9.170;2023-07-29T15:32:34;25.70;94.00
39621;DHT22;25309;48.686;9.170;2023-07-29T15:35:03;25.60;94.20
39621;DHT22;25309;48.686;9.170;2023-07-29T15:37:30;25.60;94.60
39621;DHT22;25309;48.686;9.170;2023-07-29T15:39:57;25.50;94.30
39621;DHT22;25309;48.686;9.170;2023-07-29T15:42:24;25.60;94.90